Time;durP1;ratioP1;P1;durP2;ratioP2;P2;SDS_P1;SDS_P2;PMS_P1;PMS_P2;Temp;Humidity;BMP_temperature;BMP_pressure;BME280_temperature;BME280_humidity;BME280_pressure;Samples;Min_cycle;Max_cycle;Signal;HPM_P1;HPM_P2
2022/06/14 00:01:45;;;;;;;3.80;1.40;;;26.30;99.90;;;;;;4973225;28;20128;-50
2022/06/14 00:04:10;;;;;;;6.00;1.92;;;26.20;99.90;;;;;;4974240;28;20475;-51
2022/06/14 00:06:36;;;;;;;7.70;1.80;;;26.20;99.90;;;;;;4974597;28;20394;-49
2022/06/14 00:09:03;;;;;;;4.68;1.40;;;26.20;99.90;;;;;;4974472;28;20749;-50
2022/06/14 00:11:33;;;;;;;4.60;1.17;;;26.20;99.90;;;;;;4974554;28;20089;-51
2022/06/14 00:14:00;;;;;;;4.38;1.50;;;26.20;99.90;;;;;;4974181;28;20095;-50
2022/06/14 00:16:28;;;;;;;2.67;1.63;;;26.20;99.90;;;;;;4972990;28;20019;-51
2022/06/14 00:18:54;;;;;;;6.65;1.52;;;26.30;99.90;;;;;;4974230;28;20062;-48
2022/06/14 00:21:21;;;;;;;8.20;2.00;;;26.30;99.90;;;;;;4960734;28;20026;-49
2022/06/14 00:23:47;;;;;;;4.60;1.55;;;26.20;99.90;;;;;;4974177;28;20107;-49
2022/06/14 00:26:13;;;;;;;2.30;1.20;;;26.20;99.90;;;;;;4973832;28;20031;-49
2022/06/14 00:28:41;;;;;;;9.77;2.00;;;26.20;99.90;;;;;;4974263;28;20383;-50
2022/06/14 00:31:16;;;;;;;5.63;1.70;;;26.20;99.90;;;;;;4974057;28;20050;-49
2022/06/14 00:33:42;;;;;;;3.97;2.00;;;26.20;99.90;;;;;;4973997;28;20471;-50
2022/06/14 00:36:20;;;;;;;4.90;1.17;;;26.20;99.90;;;;;;4974174;28;20169;-50
2022/06/14 00:38:45;;;;;;;3.65;1.40;;;26.20;99.90;;;;;;4973742;28;20030;-49
2022/06/14 00:41:32;;;;;;;6.38;2.17;;;26.30;99.90;;;;;;4974028;28;20033;-49
2022/06/14 00:43:58;;;;;;;4.63;1.38;;;26.30;99.90;;;;;;4960778;28;20054;-50
2022/06/14 00:46:29;;;;;;;5.38;1.00;;;26.40;99.90;;;;;;4973711;28;20546;-50
2022/06/14 00:49:06;;;;;;;4.65;1.10;;;26.40;99.90;;;;;;4973700;28;20037;-50
2022/06/14 00:51:37;;;;;;;4.32;1.10;;;26.40;99.90;;;;;;4973703;28;20103;-50
2022/06/14 00:54:20;;;;;;;6.50;1.63;;;26.40;99.90;;;;;;4973541;28;20035;-50
2022/06/14 00:57:08;;;;;;;12.05;1.98;;;26.40;99.90;;;;;;4973490;28;20038;-50
2022/06/14 01:00:05;;;;;;;5.30;1.73;;;26.30;99.90;;;;;;4971640;23;20011;-49
2022/06/14 01:02:36;;;;;;;;;;;26.20;99.90;;;;;;4946228;29;20466;-50
2022/06/14 01:05:06;;;;;;;5.07;1.40;;;26.10;99.90;;;;;;4952831;29;20290;-50
2022/06/14 01:07:36;;;;;;;5.15;1.38;;;26.10;99.90;;;;;;4953723;28;20491;-50
2022/06/14 01:10:12;;;;;;;5.55;1.30;;;26.10;99.90;;;;;;4953996;28;20023;-50
2022/06/14 01:12:41;;;;;;;5.78;1.33;;;26.10;99.90;;;;;;4967985;28;20023;-50
2022/06/14 01:15:21;;;;;;;4.18;1.50;;;26.10;99.90;;;;;;4953870;28;20106;-50
2022/06/14 01:18:01;;;;;;;1.77;0.70;;;26.10;99.90;;;;;;4952514;29;20102;-50
2022/06/14 01:20:27;;;;;;;2.72;0.98;;;26.10;99.90;;;;;;4953745;28;20039;-50
2022/06/14 01:22:54;;;;;;;4.68;1.48;;;26.10;99.90;;;;;;4953550;28;20015;-51
2022/06/14 01:25:21;;;;;;;3.80;1.33;;;26.20;99.90;;;;;;4953740;28;20027;-51
2022/06/14 01:27:47;;;;;;;4.30;1.20;;;26.10;99.90;;;;;;4953463;28;20093;-51
2022/06/14 01:30:13;;;;;;;4.78;1.13;;;26.10;99.90;;;;;;4953436;28;20098;-50
2022/06/14 01:32:49;;;;;;;3.70;1.00;;;26.10;99.90;;;;;;4953418;29;20145;-51
2022/06/14 01:35:20;;;;;;;3.63;0.93;;;26.10;99.90;;;;;;4953689;28;20459;-50
2022/06/14 01:37:49;;;;;;;2.30;0.80;;;26.20;99.90;;;;;;4953649;28;20050;-50
2022/06/14 01:40:16;;;;;;;1.85;1.13;;;26.10;99.90;;;;;;4953513;28;20038;-50
2022/06/14 01:43:22;;;;;;;3.75;1.05;;;26.10;99.90;;;;;;4953686;28;20031;-50
2022/06/14 01:46:00;;;;;;;3.55;1.08;;;26.10;99.90;;;;;;4941450;29;20045;-50
2022/06/14 01:48:40;;;;;;;2.28;0.82;;;26.10;99.90;;;;;;4953207;29;20034;-50
2022/06/14 01:54:19;;;;;;;2.33;0.80;;;26.10;99.90;;;;;;4953316;29;20077;-50
2022/06/14 01:57:40;;;;;;;7.55;1.30;;;26.10;99.90;;;;;;4953419;28;20289;-50
2022/06/14 02:00:09;;;;;;;2.83;1.08;;;26.00;99.90;;;;;;4964608;23;20069;-50
2022/06/14 02:06:03;;;;;;;2.33;1.02;;;26.00;99.90;;;;;;4991492;28;20037;-55
2022/06/14 02:08:37;;;;;;;2.07;0.80;;;26.10;99.90;;;;;;4991940;28;20030;-49
2022/06/14 02:11:16;;;;;;;3.53;0.80;;;26.10;99.90;;;;;;4991481;28;20263;-49
2022/06/14 02:13:49;;;;;;;3.15;0.88;;;26.10;99.90;;;;;;4991677;28;20084;-50
2022/06/14 02:16:27;;;;;;;5.32;1.02;;;26.10;99.90;;;;;;4978319;28;20029;-50
2022/06/14 02:19:03;;;;;;;1.65;0.80;;;26.00;99.90;;;;;;4991627;28;20088;-50
2022/06/14 02:21:45;;;;;;;5.10;0.90;;;26.00;99.90;;;;;;4979291;28;20015;-51
2022/06/14 02:24:28;;;;;;;3.75;0.90;;;26.00;99.90;;;;;;4991483;28;20033;-50
2022/06/14 02:27:17;;;;;;;1.60;1.17;;;26.00;99.90;;;;;;4991365;28;20038;-50
2022/06/14 02:29:52;;;;;;;4.20;0.73;;;26.00;99.90;;;;;;4991414;28;20442;-52
2022/06/14 02:32:52;;;;;;;4.55;1.33;;;25.90;99.90;;;;;;4991803;28;20019;-50
2022/06/14 02:35:43;;;;;;;2.63;0.70;;;25.90;99.90;;;;;;4991572;28;20117;-50
2022/06/14 02:38:15;;;;;;;3.50;1.20;;;25.90;99.90;;;;;;4991389;28;20026;-51
2022/06/14 02:41:08;;;;;;;3.50;0.80;;;25.80;99.90;;;;;;4991604;28;20544;-50
2022/06/14 02:44:01;;;;;;;3.45;1.27;;;25.80;99.90;;;;;;4993319;28;20405;-50
2022/06/14 02:46:35;;;;;;;3.22;1.05;;;25.80;99.90;;;;;;4995271;28;20386;-50
2022/06/14 02:49:32;;;;;;;1.45;0.60;;;25.80;99.90;;;;;;4995278;28;20026;-50
2022/06/14 02:52:39;;;;;;;3.08;0.93;;;25.80;99.90;;;;;;4993346;28;20041;-47
2022/06/14 02:55:05;;;;;;;;;;;25.70;99.90;;;;;;4995609;28;20026;-48
2022/06/14 02:57:36;;;;;;;2.83;0.98;;;25.80;99.90;;;;;;4995080;28;20424;-49
2022/06/14 03:00:10;;;;;;;3.40;1.13;;;25.80;99.90;;;;;;4996659;23;20047;-54
2022/06/14 03:02:44;;;;;;;2.28;0.70;;;25.80;99.90;;;;;;4956215;28;20031;-54
2022/06/14 03:05:26;;;;;;;1.92;0.77;;;25.80;99.90;;;;;;4955061;29;20114;-55
2022/06/14 03:08:13;;;;;;;1.13;0.60;;;25.80;99.90;;;;;;4943883;29;20039;-55
2022/06/14 03:10:53;;;;;;;5.50;0.82;;;25.80;99.90;;;;;;4954819;29;20024;-55
2022/06/14 03:13:35;;;;;;;2.35;0.90;;;25.90;99.90;;;;;;4955084;29;20035;-55
2022/06/14 03:16:13;;;;;;;1.40;0.80;;;25.90;99.90;;;;;;4956009;28;20046;-55
2022/06/14 03:18:57;;;;;;;1.85;0.47;;;25.90;99.90;;;;;;4954729;29;20064;-54
2022/06/14 03:21:43;;;;;;;3.25;0.77;;;25.90;99.90;;;;;;4956080;28;20078;-54
2022/06/14 03:24:37;;;;;;;1.25;0.47;;;25.90;99.90;;;;;;4955854;28;20157;-54
2022/06/14 03:27:11;;;;;;;1.00;0.50;;;25.90;99.90;;;;;;4955727;29;20038;-54
2022/06/14 03:29:59;;;;;;;4.85;1.70;;;25.90;99.90;;;;;;4955585;29;20020;-53
2022/06/14 03:32:45;;;;;;;4.13;0.80;;;25.80;99.90;;;;;;4954492;29;20034;-55
2022/06/14 03:35:31;;;;;;;3.08;1.10;;;25.90;99.90;;;;;;4955697;28;20054;-55
2022/06/14 03:38:02;;;;;;;6.03;1.37;;;25.80;99.90;;;;;;4955767;28;20085;-55
2022/06/14 03:40:28;;;;;;;4.78;1.10;;;25.70;99.90;;;;;;4955512;28;20027;-53
2022/06/14 03:42:54;;;;;;;4.72;1.63;;;25.70;99.90;;;;;;4955748;28;20019;-53
2022/06/14 03:45:28;;;;;;;3.15;1.00;;;25.70;99.90;;;;;;4955534;28;20032;-53
2022/06/14 03:47:53;;;;;;;5.70;1.35;;;25.60;99.90;;;;;;4955798;28;20039;-53
2022/06/14 03:50:29;;;;;;;3.00;1.40;;;25.60;99.90;;;;;;4955399;28;20405;-53
2022/06/14 03:53:13;;;;;;;3.83;1.80;;;25.70;99.90;;;;;;4955561;28;20475;-53
2022/06/14 03:56:02;;;;;;;7.10;2.42;;;25.70;99.90;;;;;;4954999;29;20526;-53
2022/06/14 03:58:31;;;;;;;5.75;1.30;;;25.60;99.90;;;;;;4954096;29;20030;-53
2022/06/14 04:01:15;;;;;;;5.10;1.50;;;25.60;99.90;;;;;;4984575;23;20494;-51
2022/06/14 04:04:06;;;;;;;7.32;1.60;;;25.70;99.90;;;;;;4993733;28;20479;-51
2022/06/14 04:06:47;;;;;;;9.75;1.67;;;25.70;99.90;;;;;;4994195;28;20038;-51
2022/06/14 04:09:28;;;;;;;3.90;1.10;;;25.70;99.90;;;;;;4993761;28;20027;-52
2022/06/14 04:12:17;;;;;;;5.97;0.90;;;25.70;99.90;;;;;;4994065;28;20029;-51
2022/06/14 04:15:04;;;;;;;7.40;1.10;;;25.70;99.90;;;;;;4981604;28;20026;-50
2022/06/14 04:21:10;;;;;;;22.15;11.75;;;25.80;99.90;;;;;;4993413;28;20096;-50
2022/06/14 04:23:49;;;;;;;5.68;2.08;;;25.80;99.90;;;;;;4993812;28;20037;-50
2022/06/14 04:26:22;;;;;;;2.47;1.60;;;25.80;99.90;;;;;;4992043;28;20193;-50
2022/06/14 04:28:59;;;;;;;4.10;1.20;;;25.80;99.90;;;;;;4993734;28;20390;-52
2022/06/14 04:31:57;;;;;;;4.15;1.10;;;25.70;99.90;;;;;;4993286;28;20026;-51
2022/06/14 04:34:31;;;;;;;2.83;1.42;;;25.80;99.90;;;;;;4965293;28;20403;-51
2022/06/14 04:37:13;;;;;;;3.75;0.77;;;25.70;99.90;;;;;;4993381;28;20033;-51
2022/06/14 04:39:57;;;;;;;2.33;0.95;;;25.70;99.90;;;;;;4993292;28;20041;-51
2022/06/14 04:43:03;;;;;;;2.70;0.80;;;25.70;99.90;;;;;;4980977;28;20049;-52
2022/06/14 04:45:54;;;;;;;2.63;1.40;;;25.70;99.90;;;;;;4980949;28;20106;-50
2022/06/14 04:48:33;;;;;;;4.63;2.88;;;25.70;99.90;;;;;;4992932;28;20133;-50
2022/06/14 04:51:17;;;;;;;5.68;1.83;;;25.70;99.90;;;;;;4993060;28;20022;-51
2022/06/14 04:53:53;;;;;;;10.93;4.45;;;25.60;99.90;;;;;;4992947;28;20065;-50
2022/06/14 04:56:25;;;;;;;4.93;2.93;;;25.60;99.90;;;;;;4992964;28;20057;-50
2022/06/14 04:59:01;;;;;;;6.93;3.47;;;25.60;99.90;;;;;;4992801;28;20023;-51
2022/06/14 05:01:45;;;;;;;8.48;2.08;;;25.50;99.90;;;;;;4992909;28;20398;-50
2022/06/14 05:04:30;;;;;;;12.23;2.10;;;25.50;99.90;;;;;;4992720;28;20081;-50
2022/06/14 05:07:20;;;;;;;12.90;2.95;;;25.40;99.90;;;;;;4992079;28;20121;-51
2022/06/14 05:10:02;;;;;;;23.25;3.03;;;25.40;99.90;;;;;;4980396;28;20114;-50
2022/06/14 05:12:55;;;;;;;17.02;2.58;;;25.40;99.90;;;;;;4991533;28;20018;-52
2022/06/14 05:15:28;;;;;;;20.58;3.28;;;25.40;99.90;;;;;;4991056;28;20035;-50
2022/06/14 05:18:04;;;;;;;21.85;4.32;;;25.40;99.90;;;;;;4992453;28;20027;-50
2022/06/14 05:21:08;;;;;;;25.67;3.28;;;25.50;99.90;;;;;;4992692;28;20489;-51
2022/06/14 05:23:46;;;;;;;32.63;10.88;;;25.50;99.90;;;;;;4951365;29;20042;-53
2022/06/14 05:26:30;;;;;;;27.00;6.15;;;25.50;99.90;;;;;;4951150;29;20035;-52
2022/06/14 05:29:22;;;;;;;24.63;5.70;;;25.50;99.90;;;;;;4978307;28;20030;-52
2022/06/14 05:31:53;;;;;;;26.40;5.85;;;25.50;99.90;;;;;;4979526;28;20441;-52
2022/06/14 05:34:30;;;;;;;23.13;5.28;;;25.50;99.90;;;;;;4992192;28;20030;-54
2022/06/14 05:37:09;;;;;;;20.08;3.97;;;25.50;99.90;;;;;;4992367;28;20023;-53
2022/06/14 05:39:43;;;;;;;16.38;3.40;;;25.60;99.90;;;;;;4992282;28;20026;-54
2022/06/14 05:42:19;;;;;;;22.38;3.58;;;25.50;99.90;;;;;;4991843;28;20026;-52
2022/06/14 05:44:48;;;;;;;16.05;3.42;;;25.50;99.90;;;;;;4992100;28;20029;-53
2022/06/14 05:47:26;;;;;;;24.13;4.05;;;25.60;99.90;;;;;;4991756;28;20030;-52
2022/06/14 05:49:58;;;;;;;23.20;3.90;;;25.60;99.90;;;;;;4992069;28;20390;-52
2022/06/14 05:52:40;;;;;;;27.08;4.32;;;25.60;99.90;;;;;;4991769;28;20536;-52
2022/06/14 05:55:23;;;;;;;45.58;5.10;;;25.60;99.90;;;;;;4991916;28;20029;-52
2022/06/14 05:58:12;;;;;;;16.23;3.08;;;25.70;99.90;;;;;;4980599;28;20454;-52
2022/06/14 06:00:52;;;;;;;16.40;3.42;;;25.80;99.90;;;;;;4991535;28;20449;-53
2022/06/14 06:03:46;;;;;;;16.75;3.30;;;25.90;99.90;;;;;;4991841;28;20058;-52
2022/06/14 06:06:15;;;;;;;38.42;4.63;;;26.00;99.90;;;;;;4991662;28;20065;-51
2022/06/14 06:08:49;;;;;;;42.65;4.20;;;26.00;99.90;;;;;;4991733;28;20031;-52
2022/06/14 06:11:27;;;;;;;33.88;4.35;;;26.00;99.90;;;;;;4979070;28;20053;-50
2022/06/14 06:13:55;;;;;;;;;;;26.00;99.90;;;;;;4992085;28;20425;-51
2022/06/14 06:16:39;;;;;;;30.25;5.07;;;26.10;99.90;;;;;;4991535;28;19912;-51
2022/06/14 06:19:22;;;;;;;22.08;4.78;;;26.00;99.90;;;;;;4991544;28;20406;-52
2022/06/14 06:22:01;;;;;;;28.98;3.88;;;26.00;99.90;;;;;;4991634;28;20054;-52
2022/06/14 06:24:58;;;;;;;29.33;4.82;;;26.00;99.90;;;;;;4991411;28;20022;-53
2022/06/14 06:28:13;;;;;;;24.63;3.53;;;26.10;99.90;;;;;;4990800;28;20054;-51
2022/06/14 06:30:49;;;;;;;23.15;4.60;;;26.10;99.90;;;;;;4974441;28;20472;-53
2022/06/14 06:33:17;;;;;;;19.25;3.80;;;26.10;99.90;;;;;;4978236;28;20037;-52
2022/06/14 06:36:02;;;;;;;18.42;3.20;;;26.10;99.90;;;;;;4991381;28;20052;-52
2022/06/14 06:39:04;;;;;;;21.65;3.70;;;26.10;99.90;;;;;;4991413;28;20030;-52
2022/06/14 06:41:50;;;;;;;13.90;5.55;;;26.10;99.90;;;;;;4991232;28;20065;-52
2022/06/14 06:44:56;;;;;;;28.10;7.10;;;26.10;99.90;;;;;;4990142;28;20444;-52
2022/06/14 06:47:45;;;;;;;25.33;7.75;;;26.10;99.90;;;;;;4989417;28;20109;-53
2022/06/14 06:50:34;;;;;;;40.47;23.02;;;26.20;99.90;;;;;;4990126;28;20031;-53
2022/06/14 06:53:18;;;;;;;13.43;4.82;;;26.20;99.90;;;;;;4991302;28;20045;-52
2022/06/14 06:55:43;;;;;;;14.70;7.88;;;26.20;99.90;;;;;;4991131;28;20029;-53
2022/06/14 06:58:24;;;;;;;21.52;9.77;;;26.30;99.90;;;;;;4991420;28;20019;-52
2022/06/14 07:00:54;;;;;;;13.70;3.88;;;26.30;99.90;;;;;;4991137;28;20050;-53
2022/06/14 07:03:47;;;;;;;16.05;3.20;;;26.30;99.90;;;;;;4989975;28;20489;-51
2022/06/14 07:06:24;;;;;;;8.63;2.90;;;26.30;99.90;;;;;;4979227;28;20030;-52
2022/06/14 07:09:14;;;;;;;12.15;3.72;;;26.40;99.90;;;;;;4991225;28;20030;-53
2022/06/14 07:11:49;;;;;;;17.92;5.25;;;26.40;99.90;;;;;;4990984;28;20545;-52
2022/06/14 07:14:50;;;;;;;10.23;3.28;;;26.40;99.90;;;;;;4991109;28;20418;-52
2022/06/14 07:17:43;;;;;;;17.23;3.78;;;26.40;99.90;;;;;;4978892;28;20041;-53
2022/06/14 07:20:12;;;;;;;10.93;3.17;;;26.40;99.90;;;;;;4991091;28;20034;-52
2022/06/14 07:22:49;;;;;;;7.35;2.95;;;26.40;99.90;;;;;;4991210;28;20076;-52
2022/06/14 07:25:41;;;;;;;11.50;3.08;;;26.40;99.90;;;;;;4991060;28;20058;-52
2022/06/14 07:28:19;;;;;;;9.70;3.00;;;26.40;99.90;;;;;;4982498;28;20042;-52
2022/06/14 07:30:51;;;;;;;6.47;2.40;;;26.40;99.90;;;;;;4994456;28;20041;-51
2022/06/14 07:33:19;;;;;;;8.25;1.63;;;26.50;99.90;;;;;;4981274;28;20489;-52
2022/06/14 07:35:58;;;;;;;10.55;2.60;;;26.50;99.90;;;;;;4994409;28;20110;-52
2022/06/14 07:38:34;;;;;;;11.27;2.50;;;26.50;99.90;;;;;;4994138;28;20117;-52
2022/06/14 07:41:30;;;;;;;10.68;2.28;;;26.60;99.90;;;;;;4994486;28;20109;-54
2022/06/14 07:44:09;;;;;;;12.40;2.70;;;26.70;99.90;;;;;;4980664;28;20394;-54
2022/06/14 07:46:50;;;;;;;11.93;2.75;;;26.70;99.90;;;;;;4994446;28;20027;-53
2022/06/14 07:49:42;;;;;;;11.68;2.58;;;26.80;99.90;;;;;;4982279;28;20053;-54
2022/06/14 07:52:17;;;;;;;7.18;2.53;;;26.80;99.90;;;;;;4994258;28;20018;-52
2022/06/14 07:54:47;;;;;;;11.32;2.05;;;26.90;99.90;;;;;;4994178;28;20022;-52
2022/06/14 07:57:20;;;;;;;8.35;2.22;;;26.90;99.90;;;;;;4993994;28;20089;-52
2022/06/14 08:01:07;;;;;;;6.72;1.85;;;27.00;99.90;;;;;;4993743;28;20505;-52
2022/06/14 08:02:51;;;;;;;9.52;1.90;;;27.00;99.90;;;;;;4981467;28;20061;-52
2022/06/14 08:05:24;;;;;;;7.47;1.80;;;27.00;99.90;;;;;;4993866;28;20475;-52
2022/06/14 08:07:55;;;;;;;4.95;2.17;;;27.10;99.90;;;;;;4981008;28;20046;-54
2022/06/14 08:10:28;;;;;;;8.52;1.70;;;27.20;99.90;;;;;;4993732;28;20035;-53
2022/06/14 08:13:06;;;;;;;14.07;2.30;;;27.20;99.90;;;;;;4980683;28;20121;-53
2022/06/14 08:15:36;;;;;;;3.30;1.20;;;27.20;99.90;;;;;;4992309;28;20573;-52
2022/06/14 08:18:11;;;;;;;4.50;1.38;;;27.30;99.90;;;;;;4993690;28;20501;-52
2022/06/14 08:21:06;;;;;;;7.45;1.98;;;27.30;99.90;;;;;;4993826;28;20125;-53
2022/06/14 08:23:37;;;;;;;5.00;1.15;;;27.40;99.90;;;;;;4992273;28;20643;-53
2022/06/14 08:26:26;;;;;;;5.05;2.20;;;27.40;99.90;;;;;;4993387;28;20058;-53
2022/06/14 08:29:15;;;;;;;5.55;1.80;;;27.40;99.90;;;;;;4989897;28;20042;-53
2022/06/14 08:31:47;;;;;;;4.82;1.50;;;27.40;99.90;;;;;;4979718;28;20022;-53
2022/06/14 08:34:25;;;;;;;6.97;1.92;;;27.50;99.90;;;;;;4993287;28;20019;-53
2022/06/14 08:37:14;;;;;;;4.38;1.58;;;27.50;99.90;;;;;;4993435;28;20393;-53
2022/06/14 08:39:47;;;;;;;8.23;2.60;;;27.50;99.90;;;;;;4993287;28;20410;-53
2022/06/14 08:42:42;;;;;;;4.80;2.17;;;27.50;99.90;;;;;;4992618;28;20185;-54
2022/06/14 08:45:11;;;;;;;4.93;1.92;;;27.60;99.90;;;;;;4992195;28;20034;-54
2022/06/14 08:47:54;;;;;;;4.30;1.60;;;27.60;99.90;;;;;;4992984;28;20034;-52
2022/06/14 08:50:51;;;;;;;5.75;1.50;;;27.60;99.90;;;;;;4992818;28;20041;-52
2022/06/14 08:53:54;;;;;;;3.58;1.48;;;27.60;99.90;;;;;;4993206;28;20026;-53
2022/06/14 08:56:19;;;;;;;7.25;2.80;;;27.60;99.90;;;;;;4983302;28;20038;-53
2022/06/14 08:59:16;;;;;;;8.15;2.00;;;27.60;99.90;;;;;;4992697;28;20041;-53
2022/06/14 09:02:19;;;;;;;4.05;1.60;;;27.70;99.90;;;;;;4993014;28;20046;-54
2022/06/14 09:05:05;;;;;;;6.47;2.25;;;27.70;99.90;;;;;;4982662;28;20035;-53
2022/06/14 09:07:53;;;;;;;5.88;1.67;;;27.70;99.90;;;;;;4992612;28;20297;-53
2022/06/14 09:10:33;;;;;;;3.75;1.88;;;27.70;99.90;;;;;;4992374;28;20034;-53
2022/06/14 09:13:21;;;;;;;4.82;2.90;;;27.70;99.90;;;;;;4980126;28;20062;-53
2022/06/14 09:15:58;;;;;;;5.30;2.40;;;27.80;99.90;;;;;;4992633;28;20022;-53
2022/06/14 09:18:32;;;;;;;5.80;2.10;;;27.80;99.90;;;;;;4992588;28;20066;-53
2022/06/14 09:20:58;;;;;;;5.15;2.50;;;27.80;99.90;;;;;;4992173;28;20029;-53
2022/06/14 09:24:01;;;;;;;10.20;3.38;;;27.90;99.90;;;;;;4992503;28;20386;-53
2022/06/14 09:26:53;;;;;;;7.45;2.38;;;27.90;99.90;;;;;;4978681;28;20540;-53
2022/06/14 09:29:37;;;;;;;8.82;2.47;;;27.90;99.90;;;;;;4991075;28;20053;-55
2022/06/14 09:32:12;;;;;;;11.15;2.65;;;27.90;99.90;;;;;;4992461;28;20359;-53
2022/06/14 09:35:01;;;;;;;12.55;2.92;;;27.90;99.90;;;;;;4992334;28;20069;-52
2022/06/14 09:37:53;;;;;;;12.15;3.55;;;27.90;99.90;;;;;;4981221;28;20018;-53
2022/06/14 09:40:48;;;;;;;5.65;3.13;;;27.90;99.90;;;;;;4992061;28;20033;-54
2022/06/14 09:43:22;;;;;;;8.65;3.80;;;27.90;99.90;;;;;;4992174;28;20374;-53
2022/06/14 09:46:09;;;;;;;6.75;3.45;;;27.90;99.90;;;;;;4992099;28;20022;-53
2022/06/14 09:48:44;;;;;;;10.80;2.83;;;28.00;99.90;;;;;;4991969;28;20102;-53
2022/06/14 09:51:28;;;;;;;5.20;2.63;;;28.00;99.90;;;;;;4991814;28;20390;-53
2022/06/14 09:53:56;;;;;;;5.55;2.33;;;28.00;99.90;;;;;;4991784;28;20018;-53
2022/06/14 09:56:47;;;;;;;7.20;2.53;;;28.00;99.90;;;;;;4992031;28;20062;-53
2022/06/14 09:59:50;;;;;;;7.65;2.80;;;28.00;99.90;;;;;;4992346;28;20027;-53
2022/06/14 10:02:38;;;;;;;8.82;2.97;;;28.00;99.90;;;;;;4991925;28;20046;-53
2022/06/14 10:05:09;;;;;;;5.68;2.75;;;28.00;99.90;;;;;;4991863;28;20022;-53
2022/06/14 10:07:54;;;;;;;7.90;2.80;;;28.10;99.90;;;;;;4991616;28;20038;-53
2022/06/14 10:10:26;;;;;;;6.18;2.70;;;28.10;99.90;;;;;;4991781;28;20029;-54
2022/06/14 10:13:33;;;;;;;7.95;3.28;;;28.10;99.90;;;;;;4978261;28;20419;-52
2022/06/14 10:16:30;;;;;;;10.70;2.80;;;28.10;99.90;;;;;;4969752;28;20023;-53
2022/06/14 10:18:59;;;;;;;5.15;2.70;;;28.10;99.90;;;;;;4991395;28;20545;-54
2022/06/14 10:21:28;;;;;;;7.75;2.15;;;28.20;99.90;;;;;;4991581;28;20069;-53
2022/06/14 10:24:08;;;;;;;5.80;2.50;;;28.20;99.90;;;;;;4991666;28;20030;-53
2022/06/14 10:29:30;;;;;;;5.45;1.98;;;28.20;99.90;;;;;;4991353;28;20081;-54
2022/06/14 10:32:10;;;;;;;6.85;2.63;;;28.30;99.90;;;;;;4991564;28;20053;-53
2022/06/14 10:34:56;;;;;;;12.25;3.10;;;28.30;99.90;;;;;;4991475;28;20085;-53
2022/06/14 10:37:53;;;;;;;8.52;3.38;;;28.30;99.90;;;;;;4987492;28;20031;-55
2022/06/14 10:40:54;;;;;;;7.90;2.65;;;28.30;99.90;;;;;;4991689;28;20029;-51
2022/06/14 10:43:34;;;;;;;4.85;2.45;;;28.30;99.90;;;;;;4991705;28;20428;-53
2022/06/14 10:46:24;;;;;;;5.50;2.63;;;28.30;99.90;;;;;;4991359;28;20062;-53
2022/06/14 10:49:47;;;;;;;5.13;2.10;;;28.30;99.90;;;;;;4991459;28;20089;-53
2022/06/14 10:52:24;;;;;;;4.35;1.98;;;28.40;99.90;;;;;;4969345;28;20032;-53
2022/06/14 10:55:21;;;;;;;3.42;2.38;;;28.30;99.90;;;;;;4969708;28;20038;-53
2022/06/14 10:58:17;;;;;;;5.07;2.03;;;28.40;99.90;;;;;;4980090;28;20054;-54
2022/06/14 11:01:25;;;;;;;6.28;2.05;;;28.40;99.90;;;;;;4991098;28;20136;-55
2022/06/14 11:04:10;;;;;;;7.80;1.63;;;28.40;99.90;;;;;;4991978;28;20038;-53
2022/06/14 11:07:04;;;;;;;4.85;1.98;;;28.50;99.90;;;;;;4994888;28;20030;-52
2022/06/14 11:09:59;;;;;;;5.38;1.45;;;28.40;99.90;;;;;;4981781;28;20359;-52
2022/06/14 11:12:56;;;;;;;4.63;2.00;;;28.50;99.90;;;;;;4994793;28;20041;-53
2022/06/14 11:15:43;;;;;;;5.15;1.85;;;28.50;99.90;;;;;;4995087;28;20101;-53
2022/06/14 11:18:14;;;;;;;6.30;1.85;;;28.60;99.90;;;;;;4982789;28;20182;-55
2022/06/14 11:20:43;;;;;;;3.60;1.73;;;28.60;99.90;;;;;;4994673;28;20030;-52
2022/06/14 11:23:17;;;;;;;2.38;1.30;;;28.60;99.90;;;;;;4994878;28;20031;-54
2022/06/14 11:25:53;;;;;;;3.08;1.30;;;28.60;99.90;;;;;;4994409;28;20113;-53
2022/06/14 11:28:51;;;;;;;4.85;1.95;;;28.60;99.90;;;;;;4994734;28;20490;-52
2022/06/14 11:31:29;;;;;;;3.42;1.70;;;28.60;99.90;;;;;;4994504;28;20042;-52
2022/06/14 11:34:16;;;;;;;2.67;1.60;;;28.70;99.90;;;;;;4994513;28;20026;-53
2022/06/14 11:37:06;;;;;;;5.55;2.22;;;28.60;99.90;;;;;;4990847;28;20560;-52
2022/06/14 11:39:48;;;;;;;4.72;2.03;;;28.70;99.90;;;;;;4994476;28;20034;-52
2022/06/14 11:42:28;;;;;;;3.88;1.80;;;28.70;99.90;;;;;;4980788;28;20525;-53
2022/06/14 11:45:14;;;;;;;4.82;1.67;;;28.70;99.90;;;;;;4994312;28;20034;-53
2022/06/14 11:47:45;;;;;;;7.18;2.08;;;28.70;99.90;;;;;;4982072;28;20084;-52
2022/06/14 11:50:25;;;;;;;3.30;1.77;;;28.70;99.90;;;;;;4993956;28;20039;-51
2022/06/14 11:53:21;;;;;;;5.88;2.00;;;28.70;99.90;;;;;;4994523;28;20037;-53
2022/06/14 11:56:10;;;;;;;2.85;1.50;;;28.70;99.90;;;;;;4994218;28;20023;-54
2022/06/14 11:59:03;;;;;;;4.93;1.80;;;28.70;99.90;;;;;;4994020;28;20023;-52
2022/06/14 12:01:39;;;;;;;3.25;1.55;;;28.70;99.90;;;;;;4985589;28;20417;-54
2022/06/14 12:04:18;;;;;;;3.45;1.50;;;28.70;99.90;;;;;;4993866;28;20023;-52
2022/06/14 12:07:28;;;;;;;5.72;1.50;;;28.70;99.90;;;;;;4993979;28;20505;-52
2022/06/14 12:10:08;;;;;;;3.25;1.45;;;28.80;99.90;;;;;;4994077;28;20029;-52
2022/06/14 12:13:08;;;;;;;6.38;2.42;;;28.70;99.90;;;;;;4993706;28;20026;-53
2022/06/14 12:15:43;;;;;;;3.17;1.25;;;28.80;99.90;;;;;;4993402;28;20102;-53
2022/06/14 12:18:14;;;;;;;3.10;1.05;;;28.80;99.90;;;;;;4993893;28;20471;-53
2022/06/14 12:20:57;;;;;;;2.22;1.10;;;28.80;99.90;;;;;;4993722;28;20377;-53
2022/06/14 12:23:51;;;;;;;2.33;1.10;;;28.80;99.90;;;;;;4994012;28;20551;-54
2022/06/14 12:26:43;;;;;;;3.40;1.33;;;28.80;99.90;;;;;;4993516;28;20032;-55
2022/06/14 12:29:15;;;;;;;8.50;2.08;;;28.90;99.90;;;;;;4990719;28;20043;-53
2022/06/14 12:31:48;;;;;;;3.55;1.42;;;28.90;99.90;;;;;;4993288;28;20522;-52
2022/06/14 12:34:28;;;;;;;3.95;1.10;;;28.90;99.90;;;;;;4993213;28;20478;-53
2022/06/14 12:37:25;;;;;;;5.45;1.92;;;28.90;99.90;;;;;;4993482;28;20049;-53
2022/06/14 12:40:29;;;;;;;4.65;1.73;;;28.90;99.90;;;;;;4993344;28;20153;-53
2022/06/14 12:43:19;;;;;;;5.22;2.55;;;28.80;99.90;;;;;;4992533;28;20109;-54
2022/06/14 12:45:53;;;;;;;6.10;2.95;;;28.80;99.90;;;;;;4980445;28;20064;-55
2022/06/14 12:48:34;;;;;;;5.03;1.83;;;28.90;99.90;;;;;;4991853;28;20038;-55
2022/06/14 12:51:08;;;;;;;7.82;1.60;;;28.90;99.90;;;;;;4993214;28;20023;-54
2022/06/14 12:54:22;;;;;;;3.40;1.85;;;28.90;99.90;;;;;;4992842;28;20030;-53
2022/06/14 12:57:05;;;;;;;4.63;2.33;;;28.90;99.90;;;;;;4991050;28;20114;-53
2022/06/14 12:59:59;;;;;;;4.80;1.88;;;28.90;99.90;;;;;;4980026;28;20029;-53
2022/06/14 13:02:36;;;;;;;7.75;2.35;;;29.00;99.90;;;;;;4992880;28;20030;-53
2022/06/14 13:05:14;;;;;;;4.15;2.17;;;29.00;99.90;;;;;;4992778;28;20177;-53
2022/06/14 13:08:05;;;;;;;2.78;1.85;;;29.00;99.90;;;;;;4992687;28;20069;-54
2022/06/14 13:10:49;;;;;;;8.40;2.10;;;29.00;99.90;;;;;;4992798;28;20026;-52
2022/06/14 13:13:39;;;;;;;5.70;2.58;;;29.00;99.90;;;;;;4992657;28;20037;-55
2022/06/14 13:16:07;;;;;;;3.10;1.58;;;29.00;99.90;;;;;;4992575;28;20026;-53
2022/06/14 13:18:44;;;;;;;4.28;2.15;;;29.00;99.90;;;;;;4992628;28;20102;-54
2022/06/14 13:21:38;;;;;;;5.85;1.60;;;29.00;99.90;;;;;;4992454;28;20069;-54
2022/06/14 13:24:28;;;;;;;3.33;1.42;;;29.00;99.90;;;;;;4991191;28;20041;-53
2022/06/14 13:27:28;;;;;;;3.63;1.70;;;29.00;99.90;;;;;;4991684;28;20022;-54
2022/06/14 13:30:15;;;;;;;5.50;1.65;;;29.10;99.90;;;;;;4979305;28;20030;-54
2022/06/14 13:33:17;;;;;;;3.85;1.58;;;29.10;99.90;;;;;;4992243;28;20022;-53
2022/06/14 13:36:09;;;;;;;3.67;1.63;;;29.10;99.90;;;;;;4992106;28;20046;-53
2022/06/14 13:39:05;;;;;;;5.47;1.67;;;29.10;99.90;;;;;;4992126;28;20026;-53
2022/06/14 13:42:09;;;;;;;4.35;1.60;;;29.10;99.90;;;;;;4988984;28;20145;-53
2022/06/14 13:44:36;;;;;;;5.50;1.30;;;29.10;99.90;;;;;;4970353;28;20035;-54
2022/06/14 13:47:15;;;;;;;2.55;1.05;;;29.20;99.90;;;;;;4988212;28;20038;-53
2022/06/14 13:49:47;;;;;;;6.85;1.00;;;29.20;99.90;;;;;;4991959;28;20030;-53
2022/06/14 13:52:22;;;;;;;8.98;4.72;;;29.20;99.90;;;;;;4992037;28;20050;-53
2022/06/14 13:55:08;;;;;;;2.60;1.00;;;29.20;99.90;;;;;;4992074;28;20548;-52
2022/06/14 13:58:04;;;;;;;5.05;2.40;;;29.20;99.90;;;;;;4978770;28;20037;-53
2022/06/14 14:00:56;;;;;;;2.67;1.10;;;29.20;99.90;;;;;;4991863;28;20047;-50
2022/06/14 14:03:33;;;;;;;6.70;1.60;;;29.20;99.90;;;;;;4988900;28;20026;-50
2022/06/14 14:06:10;;;;;;;2.47;1.05;;;29.30;99.90;;;;;;4991673;28;20052;-52
2022/06/14 14:08:42;;;;;;;1.75;0.70;;;29.50;99.90;;;;;;4991773;28;20038;-53
2022/06/14 14:11:28;;;;;;;5.65;0.95;;;29.50;99.90;;;;;;4990410;28;20424;-53
2022/06/14 14:14:20;;;;;;;2.72;0.68;;;29.50;99.90;;;;;;4991561;28;20037;-51